createdAt,value
2023-04-28T00:01:26.723Z,52.25
2023-04-28T00:11:48.914Z,52.72
2023-04-28T00:22:10.225Z,53.33
2023-04-28T00:32:31.199Z,53.10
2023-04-28T00:42:53.077Z,52.25
2023-04-28T00:53:14.877Z,52.92
2023-04-28T01:03:38.836Z,52.77
2023-04-28T01:14:00.517Z,52.60
2023-04-28T01:24:25.205Z,52.78
2023-04-28T01:34:47.834Z,52.82
2023-04-28T01:45:10.956Z,53.54
2023-04-28T01:55:32.614Z,52.93
2023-04-28T02:05:55.574Z,53.48
2023-04-28T02:16:17.088Z,52.95
2023-04-28T02:26:38.102Z,53.52
2023-04-28T02:36:59.136Z,53.39
2023-04-28T02:47:21.682Z,53.99
2023-04-28T02:57:42.981Z,53.44
2023-04-28T03:08:04.788Z,54.05
2023-04-28T03:18:26.673Z,53.70
2023-04-28T03:28:49.947Z,53.27
2023-04-28T03:39:12.394Z,53.87
2023-04-28T03:49:33.559Z,53.27
2023-04-28T03:59:55.260Z,53.90
2023-04-28T04:10:17.394Z,53.92
2023-04-28T04:20:39.555Z,54.29
2023-04-28T04:31:00.955Z,53.88
2023-04-28T04:41:22.897Z,54.01
2023-04-28T04:51:51.240Z,53.93
2023-04-28T05:02:12.681Z,53.69
2023-04-28T05:12:34.344Z,53.97
2023-04-28T05:22:55.830Z,54.47
2023-04-28T05:33:17.720Z,54.20
2023-04-28T05:43:39.192Z,53.87
2023-04-28T05:54:04.079Z,54.02
2023-04-28T06:04:29.686Z,53.92
2023-04-28T06:14:55.439Z,53.65
2023-04-28T06:25:16.828Z,53.78
2023-04-28T06:35:40.181Z,53.65
2023-04-28T06:46:01.619Z,53.56
2023-04-28T06:56:23.806Z,53.89
2023-04-28T07:06:45.325Z,54.00
2023-04-28T07:17:06.586Z,53.49
2023-04-28T07:27:27.542Z,53.92
2023-04-28T07:37:48.906Z,53.80
2023-04-28T07:48:10.774Z,53.99
2023-04-28T07:58:33.297Z,53.88
2023-04-28T08:08:55.831Z,53.16
2023-04-28T08:19:17.023Z,53.34
2023-04-28T08:29:39.294Z,53.10
2023-04-28T08:40:02.474Z,53.81
2023-04-28T08:50:24.296Z,53.22
2023-04-28T09:00:45.478Z,53.08
2023-04-28T09:11:12.761Z,53.10
2023-04-28T09:21:33.926Z,52.82
2023-04-28T09:31:55.497Z,53.46
2023-04-28T09:42:36.610Z,53.32
2023-04-28T09:52:59.405Z,53.15
2023-04-28T10:03:24.215Z,53.07
2023-04-28T10:13:46.365Z,53.76
2023-04-28T10:24:15.236Z,53.86
2023-04-28T10:34:36.218Z,53.91
2023-04-28T10:44:57.792Z,53.89
2023-04-28T10:55:40.444Z,53.54
2023-04-28T11:06:25.782Z,54.21
2023-04-28T11:16:51.523Z,53.80
2023-04-28T11:27:24.239Z,54.02
2023-04-28T11:37:45.493Z,53.85
2023-04-28T11:48:25.198Z,54.35
2023-04-28T11:58:46.242Z,54.40
2023-04-28T12:09:18.170Z,54.41
2023-04-28T12:19:45.870Z,54.97
2023-04-28T12:30:22.222Z,54.43
2023-04-28T12:40:43.857Z,55.36
2023-04-28T12:51:04.940Z,55.30
2023-04-28T13:01:27.579Z,55.76
2023-04-28T13:11:48.898Z,56.42
2023-04-28T13:22:10.367Z,56.29
2023-04-28T13:32:31.971Z,56.43
2023-04-28T13:42:53.509Z,56.41
2023-04-28T13:53:15.619Z,56.89
2023-04-28T14:03:37.712Z,56.73
2023-04-28T14:13:59.209Z,56.82
2023-04-28T14:24:20.588Z,56.85
2023-04-28T14:34:43.049Z,57.19
2023-04-28T14:45:06.545Z,57.66
2023-04-28T14:55:28.319Z,56.83
2023-04-28T15:05:49.519Z,57.62
2023-04-28T15:16:10.875Z,57.79
2023-04-28T15:26:32.503Z,58.03
2023-04-28T15:36:56.930Z,58.13
2023-04-28T15:47:19.080Z,58.28
2023-04-28T15:57:40.454Z,58.61
2023-04-28T16:08:02.072Z,59.00
2023-04-28T16:18:24.125Z,59.22
2023-04-28T16:28:46.140Z,59.13
2023-04-28T16:39:07.452Z,59.20
2023-04-28T16:49:28.427Z,59.32
2023-04-28T16:59:51.093Z,60.05
2023-04-28T17:10:12.727Z,60.32
2023-04-28T17:20:33.977Z,60.18
2023-04-28T17:30:56.029Z,59.61
2023-04-28T17:41:17.437Z,59.57
2023-04-28T17:51:38.516Z,59.05
2023-04-28T18:01:59.884Z,60.03
2023-04-28T18:12:21.709Z,60.31
2023-04-28T18:22:42.706Z,59.92
2023-04-28T18:33:05.022Z,59.93
2023-04-28T18:43:28.079Z,59.90
2023-04-28T18:53:49.304Z,59.91
2023-04-28T19:04:10.838Z,60.03
2023-04-28T19:14:33.445Z,60.11
2023-04-28T19:24:54.357Z,60.62
2023-04-28T19:35:16.597Z,60.38
2023-04-28T19:45:38.544Z,60.58
2023-04-28T19:56:02.146Z,60.54
2023-04-28T20:06:23.713Z,60.57
2023-04-28T20:16:46.048Z,60.90
2023-04-28T20:27:07.464Z,60.58
2023-04-28T20:37:30.392Z,61.19
2023-04-28T20:47:52.538Z,61.03
2023-04-28T20:58:14.800Z,61.07
2023-04-28T21:08:36.611Z,61.23
2023-04-28T21:18:58.362Z,61.57
2023-04-28T21:29:19.433Z,61.01
2023-04-28T21:39:42.200Z,62.02
2023-04-28T21:50:04.054Z,62.77
2023-04-28T22:00:26.255Z,62.86
2023-04-28T22:10:47.224Z,63.23
2023-04-28T22:21:08.457Z,63.36
2023-04-28T22:31:29.880Z,64.07
2023-04-28T22:41:51.419Z,63.97
2023-04-28T22:52:13.041Z,63.69
2023-04-28T23:02:34.372Z,63.84
2023-04-28T23:12:56.034Z,63.36
2023-04-28T23:23:17.440Z,64.98
2023-04-28T23:33:38.400Z,64.83
2023-04-28T23:43:59.656Z,64.85
2023-04-28T23:54:20.952Z,64.97
